Ilha Solteira, Brazil
Current Conditions -  °F | °C
As of 1:00 AM on Tuesday 23 Dec 2014 (Local Time) from SBDN Reporting Station
Overcast Overcast  
Wind Chill: 70°   Ceiling: 2000
Heat Index: 70°   Visibility: 6mi
Dew Point: 68°   Wind: 6mph
Humidity: 94%   Direction: 70°ENE
Pressure: 29.91"   Gusts: NA
Location:  20.43°S, 51.34°W
Report Text: SBDN 230300Z 07005KT 9999 SCT005 BKN020 OVC060 21/20 Q1013
Loading
Personal Weather Stations






























Interactive Weather Map New forecast layout! Learn more

10-Day Weather Forecast

Advertisements
Track Severe Weather on mobile